Clarksburg, California
Current Conditions -  °F | °C
As of 11:53 AM on Thursday 29 Jan 2015 (Local Time) from KSAC Reporting Station
Clear Clear  
Wind Chill: 61°   Ceiling: Unl
Heat Index: 61°   Visibility: 8mi
Dew Point: 49°   Wind: 3mph
Humidity: 64%   Direction: 270°W
Pressure: 30.14"   Gusts: NA
Location:  38.42°N, 121.53°W
Report Text: KSAC 291953Z 27003KT 8SM CLR 16/09 A3014 RMK AO2 SLP206 T01610094
Loading
Personal Weather Stations






























Interactive Weather Map New forecast layout! Learn more

10-Day Weather Forecast

Advertisements
Track Severe Weather on mobile